sensor_id;sensor_type;location;lat;lon;timestamp;P1;durP1;ratioP1;P2;durP2;ratioP2
53145;SDS011;39042;53.150;5.898;2023-03-14T00:02:10;23.88;;;3.25;;
53145;SDS011;39042;53.150;5.898;2023-03-14T00:04:36;22.75;;;3.00;;
53145;SDS011;39042;53.150;5.898;2023-03-14T00:07:03;18.40;;;2.93;;
53145;SDS011;39042;53.150;5.898;2023-03-14T00:09:28;20.30;;;3.92;;
53145;SDS011;39042;53.150;5.898;2023-03-14T00:11:55;17.33;;;2.65;;
53145;SDS011;39042;53.150;5.898;2023-03-14T00:14:21;21.98;;;4.03;;
53145;SDS011;39042;53.150;5.898;2023-03-14T00:16:47;17.63;;;3.87;;
53145;SDS011;39042;53.150;5.898;2023-03-14T00:19:13;23.43;;;3.73;;
53145;SDS011;39042;53.150;5.898;2023-03-14T00:21:38;20.90;;;3.57;;
53145;SDS011;39042;53.150;5.898;2023-03-14T00:24:04;22.73;;;3.00;;
53145;SDS011;39042;53.150;5.898;2023-03-14T00:26:30;22.48;;;3.42;;
53145;SDS011;39042;53.150;5.898;2023-03-14T00:28:56;19.80;;;3.03;;
53145;SDS011;39042;53.150;5.898;2023-03-14T00:31:22;22.85;;;3.00;;
53145;SDS011;39042;53.150;5.898;2023-03-14T00:33:50;23.53;;;3.60;;
53145;SDS011;39042;53.150;5.898;2023-03-14T00:36:17;26.05;;;3.78;;
53145;SDS011;39042;53.150;5.898;2023-03-14T00:38:45;23.00;;;3.22;;
53145;SDS011;39042;53.150;5.898;2023-03-14T00:41:14;21.40;;;3.70;;
53145;SDS011;39042;53.150;5.898;2023-03-14T00:43:42;22.15;;;3.38;;
53145;SDS011;39042;53.150;5.898;2023-03-14T00:46:08;23.90;;;3.17;;
53145;SDS011;39042;53.150;5.898;2023-03-14T00:48:34;27.38;;;3.53;;
53145;SDS011;39042;53.150;5.898;2023-03-14T00:51:01;19.80;;;3.67;;
53145;SDS011;39042;53.150;5.898;2023-03-14T00:53:28;19.70;;;3.92;;
53145;SDS011;39042;53.150;5.898;2023-03-14T00:55:53;19.50;;;3.23;;
53145;SDS011;39042;53.150;5.898;2023-03-14T00:58:19;20.47;;;2.80;;
53145;SDS011;39042;53.150;5.898;2023-03-14T01:00:45;21.10;;;3.53;;
53145;SDS011;39042;53.150;5.898;2023-03-14T01:03:12;18.00;;;2.72;;
53145;SDS011;39042;53.150;5.898;2023-03-14T01:05:39;14.07;;;3.03;;
53145;SDS011;39042;53.150;5.898;2023-03-14T01:08:05;23.05;;;3.92;;
53145;SDS011;39042;53.150;5.898;2023-03-14T01:10:33;16.48;;;2.90;;
53145;SDS011;39042;53.150;5.898;2023-03-14T01:13:00;18.63;;;2.78;;
53145;SDS011;39042;53.150;5.898;2023-03-14T01:15:27;16.60;;;2.88;;
53145;SDS011;39042;53.150;5.898;2023-03-14T01:17:53;21.63;;;2.83;;
53145;SDS011;39042;53.150;5.898;2023-03-14T01:20:22;22.05;;;3.15;;
53145;SDS011;39042;53.150;5.898;2023-03-14T01:22:47;16.63;;;2.47;;
53145;SDS011;39042;53.150;5.898;2023-03-14T01:25:15;16.95;;;2.50;;
53145;SDS011;39042;53.150;5.898;2023-03-14T01:27:42;18.75;;;2.63;;
53145;SDS011;39042;53.150;5.898;2023-03-14T01:30:09;14.50;;;2.70;;
53145;SDS011;39042;53.150;5.898;2023-03-14T01:32:37;14.65;;;2.42;;
53145;SDS011;39042;53.150;5.898;2023-03-14T01:35:05;14.57;;;2.50;;
53145;SDS011;39042;53.150;5.898;2023-03-14T01:39:58;20.67;;;3.05;;
53145;SDS011;39042;53.150;5.898;2023-03-14T01:42:24;15.70;;;2.17;;
53145;SDS011;39042;53.150;5.898;2023-03-14T01:44:52;16.13;;;2.03;;
53145;SDS011;39042;53.150;5.898;2023-03-14T01:47:20;17.92;;;2.22;;
53145;SDS011;39042;53.150;5.898;2023-03-14T01:49:46;17.67;;;2.05;;
53145;SDS011;39042;53.150;5.898;2023-03-14T01:55:15;16.08;;;2.38;;
53145;SDS011;39042;53.150;5.898;2023-03-14T01:57:47;22.08;;;3.05;;
53145;SDS011;39042;53.150;5.898;2023-03-14T02:00:22;19.67;;;2.28;;
53145;SDS011;39042;53.150;5.898;2023-03-14T02:02:55;15.50;;;1.90;;
53145;SDS011;39042;53.150;5.898;2023-03-14T02:05:34;18.65;;;2.05;;
53145;SDS011;39042;53.150;5.898;2023-03-14T02:08:11;17.23;;;2.00;;
53145;SDS011;39042;53.150;5.898;2023-03-14T02:10:48;14.70;;;2.10;;
53145;SDS011;39042;53.150;5.898;2023-03-14T02:13:17;15.07;;;1.73;;
53145;SDS011;39042;53.150;5.898;2023-03-14T02:15:44;19.42;;;2.28;;
53145;SDS011;39042;53.150;5.898;2023-03-14T02:18:18;20.95;;;2.33;;
53145;SDS011;39042;53.150;5.898;2023-03-14T02:23:53;15.45;;;1.88;;
53145;SDS011;39042;53.150;5.898;2023-03-14T02:26:32;23.45;;;2.47;;
53145;SDS011;39042;53.150;5.898;2023-03-14T02:29:08;18.58;;;2.92;;
53145;SDS011;39042;53.150;5.898;2023-03-14T02:31:34;14.88;;;1.98;;
53145;SDS011;39042;53.150;5.898;2023-03-14T02:34:00;17.53;;;2.70;;
53145;SDS011;39042;53.150;5.898;2023-03-14T02:36:28;13.95;;;2.20;;
53145;SDS011;39042;53.150;5.898;2023-03-14T02:39:14;18.45;;;2.28;;
53145;SDS011;39042;53.150;5.898;2023-03-14T02:41:46;15.75;;;2.28;;
53145;SDS011;39042;53.150;5.898;2023-03-14T02:44:15;18.15;;;2.55;;
53145;SDS011;39042;53.150;5.898;2023-03-14T02:46:41;20.95;;;2.45;;
53145;SDS011;39042;53.150;5.898;2023-03-14T02:49:08;18.95;;;2.28;;
53145;SDS011;39042;53.150;5.898;2023-03-14T02:51:37;21.33;;;3.17;;
53145;SDS011;39042;53.150;5.898;2023-03-14T02:54:05;21.27;;;2.90;;
53145;SDS011;39042;53.150;5.898;2023-03-14T02:56:31;24.53;;;3.20;;
53145;SDS011;39042;53.150;5.898;2023-03-14T02:58:58;20.30;;;2.70;;
53145;SDS011;39042;53.150;5.898;2023-03-14T03:01:39;25.55;;;3.67;;
53145;SDS011;39042;53.150;5.898;2023-03-14T03:04:06;23.98;;;3.35;;
53145;SDS011;39042;53.150;5.898;2023-03-14T03:06:32;28.67;;;3.60;;
53145;SDS011;39042;53.150;5.898;2023-03-14T03:08:59;28.48;;;3.40;;
53145;SDS011;39042;53.150;5.898;2023-03-14T03:11:25;25.75;;;3.30;;
53145;SDS011;39042;53.150;5.898;2023-03-14T03:13:51;29.03;;;2.77;;
53145;SDS011;39042;53.150;5.898;2023-03-14T03:16:17;27.17;;;3.97;;
53145;SDS011;39042;53.150;5.898;2023-03-14T03:18:42;26.33;;;2.73;;
53145;SDS011;39042;53.150;5.898;2023-03-14T03:21:08;29.43;;;3.03;;
53145;SDS011;39042;53.150;5.898;2023-03-14T03:23:34;26.73;;;3.67;;
53145;SDS011;39042;53.150;5.898;2023-03-14T03:26:00;29.53;;;3.53;;
53145;SDS011;39042;53.150;5.898;2023-03-14T03:28:27;32.70;;;3.67;;
53145;SDS011;39042;53.150;5.898;2023-03-14T03:33:20;28.65;;;5.45;;
53145;SDS011;39042;53.150;5.898;2023-03-14T03:35:49;30.85;;;4.13;;
53145;SDS011;39042;53.150;5.898;2023-03-14T03:38:21;34.35;;;4.50;;
53145;SDS011;39042;53.150;5.898;2023-03-14T03:40:50;31.17;;;3.92;;
53145;SDS011;39042;53.150;5.898;2023-03-14T03:43:16;32.72;;;4.88;;
53145;SDS011;39042;53.150;5.898;2023-03-14T03:45:45;25.55;;;4.15;;
53145;SDS011;39042;53.150;5.898;2023-03-14T03:48:11;34.33;;;4.23;;
53145;SDS011;39042;53.150;5.898;2023-03-14T03:50:37;31.47;;;4.03;;
53145;SDS011;39042;53.150;5.898;2023-03-14T03:53:08;30.95;;;3.63;;
53145;SDS011;39042;53.150;5.898;2023-03-14T03:55:34;36.93;;;4.50;;
53145;SDS011;39042;53.150;5.898;2023-03-14T03:58:00;28.40;;;3.43;;
53145;SDS011;39042;53.150;5.898;2023-03-14T04:00:25;27.20;;;4.03;;
53145;SDS011;39042;53.150;5.898;2023-03-14T04:02:51;33.30;;;4.57;;
53145;SDS011;39042;53.150;5.898;2023-03-14T04:05:18;22.35;;;3.28;;
53145;SDS011;39042;53.150;5.898;2023-03-14T04:07:50;29.45;;;5.13;;
53145;SDS011;39042;53.150;5.898;2023-03-14T04:10:21;29.85;;;4.18;;
53145;SDS011;39042;53.150;5.898;2023-03-14T04:13:08;34.80;;;4.07;;
53145;SDS011;39042;53.150;5.898;2023-03-14T04:15:36;22.40;;;3.88;;
53145;SDS011;39042;53.150;5.898;2023-03-14T04:18:08;27.30;;;4.20;;
53145;SDS011;39042;53.150;5.898;2023-03-14T04:20:34;23.42;;;3.28;;
53145;SDS011;39042;53.150;5.898;2023-03-14T04:23:01;28.55;;;3.72;;
53145;SDS011;39042;53.150;5.898;2023-03-14T04:25:27;30.53;;;4.33;;
53145;SDS011;39042;53.150;5.898;2023-03-14T04:27:56;31.83;;;3.60;;
53145;SDS011;39042;53.150;5.898;2023-03-14T04:30:25;20.00;;;3.65;;
53145;SDS011;39042;53.150;5.898;2023-03-14T04:32:59;24.58;;;4.25;;
53145;SDS011;39042;53.150;5.898;2023-03-14T04:35:27;18.88;;;3.05;;
53145;SDS011;39042;53.150;5.898;2023-03-14T04:37:59;20.40;;;3.80;;
53145;SDS011;39042;53.150;5.898;2023-03-14T04:40:26;35.80;;;4.45;;
53145;SDS011;39042;53.150;5.898;2023-03-14T04:42:57;24.52;;;4.05;;
53145;SDS011;39042;53.150;5.898;2023-03-14T04:45:23;23.30;;;4.53;;
53145;SDS011;39042;53.150;5.898;2023-03-14T04:47:49;26.52;;;4.57;;
53145;SDS011;39042;53.150;5.898;2023-03-14T04:50:17;20.75;;;3.88;;
53145;SDS011;39042;53.150;5.898;2023-03-14T04:52:43;22.47;;;4.80;;
53145;SDS011;39042;53.150;5.898;2023-03-14T04:55:09;31.05;;;5.20;;
53145;SDS011;39042;53.150;5.898;2023-03-14T04:57:35;20.80;;;5.03;;
53145;SDS011;39042;53.150;5.898;2023-03-14T05:00:01;19.37;;;4.57;;
53145;SDS011;39042;53.150;5.898;2023-03-14T05:02:52;14.35;;;4.32;;
53145;SDS011;39042;53.150;5.898;2023-03-14T05:05:32;18.30;;;4.57;;
53145;SDS011;39042;53.150;5.898;2023-03-14T05:08:27;14.43;;;3.92;;
53145;SDS011;39042;53.150;5.898;2023-03-14T05:11:25;10.73;;;3.20;;
53145;SDS011;39042;53.150;5.898;2023-03-14T05:14:12;15.95;;;4.15;;
53145;SDS011;39042;53.150;5.898;2023-03-14T05:16:57;18.67;;;5.03;;
53145;SDS011;39042;53.150;5.898;2023-03-14T05:19:41;13.15;;;4.00;;
53145;SDS011;39042;53.150;5.898;2023-03-14T05:22:14;9.85;;;3.55;;
53145;SDS011;39042;53.150;5.898;2023-03-14T05:24:58;8.23;;;2.88;;
53145;SDS011;39042;53.150;5.898;2023-03-14T05:27:47;12.00;;;3.20;;
53145;SDS011;39042;53.150;5.898;2023-03-14T05:30:39;13.77;;;4.00;;
53145;SDS011;39042;53.150;5.898;2023-03-14T05:33:29;19.58;;;4.78;;
53145;SDS011;39042;53.150;5.898;2023-03-14T07:11:26;8.02;;;0.40;;
53145;SDS011;39042;53.150;5.898;2023-03-14T07:13:52;8.23;;;0.40;;
53145;SDS011;39042;53.150;5.898;2023-03-14T07:16:19;5.18;;;0.20;;
53145;SDS011;39042;53.150;5.898;2023-03-14T07:18:45;2.83;;;0.40;;
53145;SDS011;39042;53.150;5.898;2023-03-14T07:21:11;9.70;;;0.40;;
53145;SDS011;39042;53.150;5.898;2023-03-14T07:23:37;6.28;;;0.30;;
53145;SDS011;39042;53.150;5.898;2023-03-14T07:26:05;2.72;;;0.10;;
53145;SDS011;39042;53.150;5.898;2023-03-14T07:28:33;5.53;;;0.40;;
53145;SDS011;39042;53.150;5.898;2023-03-14T07:31:06;5.40;;;0.30;;
53145;SDS011;39042;53.150;5.898;2023-03-14T07:33:33;6.88;;;1.05;;
53145;SDS011;39042;53.150;5.898;2023-03-14T07:38:26;5.47;;;0.35;;
53145;SDS011;39042;53.150;5.898;2023-03-14T07:41:21;5.10;;;0.40;;
53145;SDS011;39042;53.150;5.898;2023-03-14T07:44:08;7.13;;;0.30;;
53145;SDS011;39042;53.150;5.898;2023-03-14T07:46:34;5.32;;;0.70;;
53145;SDS011;39042;53.150;5.898;2023-03-14T07:48:59;7.43;;;0.37;;
53145;SDS011;39042;53.150;5.898;2023-03-14T07:51:25;11.57;;;0.90;;
53145;SDS011;39042;53.150;5.898;2023-03-14T07:53:51;15.70;;;0.57;;
53145;SDS011;39042;53.150;5.898;2023-03-14T07:56:17;8.67;;;1.60;;
53145;SDS011;39042;53.150;5.898;2023-03-14T07:58:42;8.17;;;1.00;;
53145;SDS011;39042;53.150;5.898;2023-03-14T08:01:08;3.77;;;0.60;;
53145;SDS011;39042;53.150;5.898;2023-03-14T08:03:34;7.68;;;1.17;;
53145;SDS011;39042;53.150;5.898;2023-03-14T08:06:00;8.57;;;0.73;;
53145;SDS011;39042;53.150;5.898;2023-03-14T08:08:25;6.23;;;0.40;;
53145;SDS011;39042;53.150;5.898;2023-03-14T08:10:51;7.83;;;0.60;;
53145;SDS011;39042;53.150;5.898;2023-03-14T08:13:17;8.13;;;1.07;;
53145;SDS011;39042;53.150;5.898;2023-03-14T08:15:47;4.83;;;0.50;;
53145;SDS011;39042;53.150;5.898;2023-03-14T08:18:13;8.40;;;0.65;;
53145;SDS011;39042;53.150;5.898;2023-03-14T08:20:39;9.87;;;1.00;;
53145;SDS011;39042;53.150;5.898;2023-03-14T08:23:04;6.83;;;0.77;;
53145;SDS011;39042;53.150;5.898;2023-03-14T08:25:30;11.80;;;0.80;;
53145;SDS011;39042;53.150;5.898;2023-03-14T08:27:57;10.10;;;0.90;;
53145;SDS011;39042;53.150;5.898;2023-03-14T08:30:23;8.37;;;1.10;;
53145;SDS011;39042;53.150;5.898;2023-03-14T08:32:48;11.30;;;0.77;;
53145;SDS011;39042;53.150;5.898;2023-03-14T08:35:14;11.83;;;1.60;;
53145;SDS011;39042;53.150;5.898;2023-03-14T08:37:40;11.37;;;0.80;;
53145;SDS011;39042;53.150;5.898;2023-03-14T08:40:07;13.67;;;1.23;;
53145;SDS011;39042;53.150;5.898;2023-03-14T08:42:38;11.80;;;0.77;;
53145;SDS011;39042;53.150;5.898;2023-03-14T08:45:04;17.30;;;1.55;;
53145;SDS011;39042;53.150;5.898;2023-03-14T08:47:31;14.77;;;1.40;;
53145;SDS011;39042;53.150;5.898;2023-03-14T08:49:57;20.65;;;1.85;;
53145;SDS011;39042;53.150;5.898;2023-03-14T08:52:23;13.43;;;2.00;;
53145;SDS011;39042;53.150;5.898;2023-03-14T08:54:49;15.93;;;2.00;;
53145;SDS011;39042;53.150;5.898;2023-03-14T08:57:15;14.90;;;2.80;;
53145;SDS011;39042;53.150;5.898;2023-03-14T08:59:41;14.37;;;2.00;;
53145;SDS011;39042;53.150;5.898;2023-03-14T09:02:08;18.20;;;1.67;;
53145;SDS011;39042;53.150;5.898;2023-03-14T09:04:35;21.45;;;2.70;;
53145;SDS011;39042;53.150;5.898;2023-03-14T09:07:01;19.07;;;2.60;;
53145;SDS011;39042;53.150;5.898;2023-03-14T09:09:28;22.05;;;2.47;;
53145;SDS011;39042;53.150;5.898;2023-03-14T09:14:21;12.38;;;1.95;;
53145;SDS011;39042;53.150;5.898;2023-03-14T09:16:47;20.17;;;1.57;;
53145;SDS011;39042;53.150;5.898;2023-03-14T09:19:12;20.57;;;2.30;;
53145;SDS011;39042;53.150;5.898;2023-03-14T19:23:22;9.35;;;1.02;;
53145;SDS011;39042;53.150;5.898;2023-03-14T19:25:49;11.00;;;1.55;;
53145;SDS011;39042;53.150;5.898;2023-03-14T19:28:18;4.47;;;0.75;;
53145;SDS011;39042;53.150;5.898;2023-03-14T19:30:45;7.82;;;0.98;;
53145;SDS011;39042;53.150;5.898;2023-03-14T19:33:12;6.38;;;0.80;;
53145;SDS011;39042;53.150;5.898;2023-03-14T19:35:38;8.20;;;1.10;;
53145;SDS011;39042;53.150;5.898;2023-03-14T19:38:05;6.35;;;0.60;;
53145;SDS011;39042;53.150;5.898;2023-03-14T19:40:31;11.73;;;2.05;;
53145;SDS011;39042;53.150;5.898;2023-03-14T19:42:57;10.53;;;1.00;;
53145;SDS011;39042;53.150;5.898;2023-03-14T19:45:23;11.17;;;1.10;;
53145;SDS011;39042;53.150;5.898;2023-03-14T19:47:49;6.25;;;0.77;;
53145;SDS011;39042;53.150;5.898;2023-03-14T19:50:15;6.00;;;0.83;;
53145;SDS011;39042;53.150;5.898;2023-03-14T19:52:41;8.35;;;1.40;;
53145;SDS011;39042;53.150;5.898;2023-03-14T19:55:11;11.43;;;1.38;;
53145;SDS011;39042;53.150;5.898;2023-03-14T19:57:37;10.23;;;1.57;;
53145;SDS011;39042;53.150;5.898;2023-03-14T20:00:04;7.38;;;1.08;;
53145;SDS011;39042;53.150;5.898;2023-03-14T20:02:37;8.32;;;1.27;;
53145;SDS011;39042;53.150;5.898;2023-03-14T20:05:03;6.53;;;0.70;;
53145;SDS011;39042;53.150;5.898;2023-03-14T20:07:30;9.00;;;0.57;;
53145;SDS011;39042;53.150;5.898;2023-03-14T20:09:55;10.57;;;1.20;;
53145;SDS011;39042;53.150;5.898;2023-03-14T20:12:21;7.07;;;1.00;;
53145;SDS011;39042;53.150;5.898;2023-03-14T20:14:47;14.93;;;3.60;;
53145;SDS011;39042;53.150;5.898;2023-03-14T20:17:13;14.33;;;2.23;;
53145;SDS011;39042;53.150;5.898;2023-03-14T20:19:38;11.07;;;1.70;;
53145;SDS011;39042;53.150;5.898;2023-03-14T20:22:04;10.43;;;2.00;;
53145;SDS011;39042;53.150;5.898;2023-03-14T20:24:30;20.47;;;4.40;;
53145;SDS011;39042;53.150;5.898;2023-03-14T20:26:57;12.55;;;3.13;;
53145;SDS011;39042;53.150;5.898;2023-03-14T20:29:23;13.27;;;6.30;;
53145;SDS011;39042;53.150;5.898;2023-03-14T20:31:49;7.40;;;2.70;;
53145;SDS011;39042;53.150;5.898;2023-03-14T20:34:15;12.17;;;3.40;;
53145;SDS011;39042;53.150;5.898;2023-03-14T20:36:41;10.53;;;2.93;;
53145;SDS011;39042;53.150;5.898;2023-03-14T20:39:07;9.57;;;1.23;;
53145;SDS011;39042;53.150;5.898;2023-03-14T20:41:33;14.75;;;2.10;;
53145;SDS011;39042;53.150;5.898;2023-03-14T20:44:05;11.02;;;2.38;;
53145;SDS011;39042;53.150;5.898;2023-03-14T20:46:33;8.38;;;1.63;;
53145;SDS011;39042;53.150;5.898;2023-03-14T20:48:59;9.03;;;1.97;;
53145;SDS011;39042;53.150;5.898;2023-03-14T20:51:26;18.25;;;3.97;;
53145;SDS011;39042;53.150;5.898;2023-03-14T20:53:52;12.77;;;1.93;;
53145;SDS011;39042;53.150;5.898;2023-03-14T20:56:18;10.70;;;0.80;;
53145;SDS011;39042;53.150;5.898;2023-03-14T20:58:43;11.13;;;1.80;;
53145;SDS011;39042;53.150;5.898;2023-03-14T21:01:10;20.40;;;6.85;;
53145;SDS011;39042;53.150;5.898;2023-03-14T21:03:36;9.38;;;1.88;;
53145;SDS011;39042;53.150;5.898;2023-03-14T21:06:03;7.18;;;1.17;;
53145;SDS011;39042;53.150;5.898;2023-03-14T21:08:36;10.30;;;1.13;;
53145;SDS011;39042;53.150;5.898;2023-03-14T21:11:04;11.77;;;0.80;;
53145;SDS011;39042;53.150;5.898;2023-03-14T21:13:30;7.15;;;0.40;;
53145;SDS011;39042;53.150;5.898;2023-03-14T21:16:01;4.70;;;0.50;;
53145;SDS011;39042;53.150;5.898;2023-03-14T21:18:27;6.03;;;1.13;;
53145;SDS011;39042;53.150;5.898;2023-03-14T21:20:54;7.30;;;1.40;;
53145;SDS011;39042;53.150;5.898;2023-03-14T21:23:23;6.78;;;1.42;;
53145;SDS011;39042;53.150;5.898;2023-03-14T21:25:51;7.20;;;2.03;;
53145;SDS011;39042;53.150;5.898;2023-03-14T21:30:43;6.45;;;1.73;;
53145;SDS011;39042;53.150;5.898;2023-03-14T21:33:09;10.67;;;2.93;;
53145;SDS011;39042;53.150;5.898;2023-03-14T21:35:35;5.83;;;0.60;;
53145;SDS011;39042;53.150;5.898;2023-03-14T21:38:01;7.17;;;0.70;;
53145;SDS011;39042;53.150;5.898;2023-03-14T21:40:27;2.30;;;0.30;;
53145;SDS011;39042;53.150;5.898;2023-03-14T21:42:53;3.50;;;0.40;;
53145;SDS011;39042;53.150;5.898;2023-03-14T21:45:23;4.30;;;0.57;;
53145;SDS011;39042;53.150;5.898;2023-03-14T21:47:53;5.22;;;0.75;;
53145;SDS011;39042;53.150;5.898;2023-03-14T21:50:21;5.60;;;0.60;;
53145;SDS011;39042;53.150;5.898;2023-03-14T21:52:49;9.73;;;0.60;;
53145;SDS011;39042;53.150;5.898;2023-03-14T21:55:16;3.97;;;0.30;;
